createdAt,value
2022-08-21T00:02:25.439Z,18.10
2022-08-21T00:04:56.963Z,18.10
2022-08-21T00:07:25.231Z,18.10
2022-08-21T00:09:52.845Z,18.00
2022-08-21T00:12:19.927Z,18.10
2022-08-21T00:14:46.891Z,18.00
2022-08-21T00:17:13.701Z,18.00
2022-08-21T00:19:40.471Z,18.00
2022-08-21T00:22:07.310Z,18.00
2022-08-21T00:24:34.698Z,18.00
2022-08-21T00:27:01.516Z,18.00
2022-08-21T00:29:29.403Z,18.00
2022-08-21T00:31:56.214Z,17.90
2022-08-21T00:34:23.067Z,17.90
2022-08-21T00:36:50.186Z,17.90
2022-08-21T00:39:17.062Z,17.90
2022-08-21T00:41:44.259Z,17.90
2022-08-21T00:44:13.854Z,17.80
2022-08-21T00:46:42.807Z,17.80
2022-08-21T00:49:12.493Z,17.80
2022-08-21T00:51:54.051Z,17.80
2022-08-21T00:54:25.544Z,17.80
2022-08-21T00:57:00.906Z,17.80
2022-08-21T00:59:32.317Z,17.80
2022-08-21T01:01:59.162Z,17.80
2022-08-21T01:04:26.387Z,17.80
2022-08-21T01:06:53.906Z,17.80
2022-08-21T01:09:21.050Z,17.70
2022-08-21T01:11:47.952Z,17.70
2022-08-21T01:14:16.117Z,17.70
2022-08-21T01:16:45.854Z,17.70
2022-08-21T01:19:15.069Z,17.60
2022-08-21T01:21:42.244Z,17.60
2022-08-21T01:24:11.564Z,17.60
2022-08-21T01:26:39.012Z,17.60
2022-08-21T01:29:24.062Z,17.60
2022-08-21T01:31:50.806Z,17.60
2022-08-21T01:34:18.739Z,17.50
2022-08-21T01:36:47.148Z,17.50
2022-08-21T01:39:14.240Z,17.40
2022-08-21T01:41:41.164Z,17.40
2022-08-21T01:44:08.060Z,17.40
2022-08-21T01:46:36.814Z,17.40
2022-08-21T01:49:04.799Z,17.30
2022-08-21T01:51:31.698Z,17.20
2022-08-21T01:53:58.609Z,17.10
2022-08-21T01:56:27.011Z,17.10
2022-08-21T01:58:53.757Z,17.00
2022-08-21T02:01:20.627Z,17.00
2022-08-21T02:03:47.379Z,16.90
2022-08-21T02:06:18.767Z,16.80
2022-08-21T02:08:47.343Z,16.70
2022-08-21T02:11:14.549Z,16.60
2022-08-21T02:13:41.390Z,16.60
2022-08-21T02:16:08.866Z,16.60
2022-08-21T02:18:36.404Z,16.50
2022-08-21T02:21:04.179Z,16.50
2022-08-21T02:23:31.044Z,16.50
2022-08-21T02:25:59.571Z,16.50
2022-08-21T02:28:27.616Z,16.50
2022-08-21T02:30:56.824Z,16.50
2022-08-21T02:33:24.016Z,16.50
2022-08-21T02:35:51.504Z,16.50
2022-08-21T02:38:21.847Z,16.50
2022-08-21T02:40:51.349Z,16.50
2022-08-21T02:43:20.797Z,16.60
2022-08-21T02:45:48.621Z,16.60
2022-08-21T02:48:18.374Z,16.60
2022-08-21T02:50:51.934Z,16.60
2022-08-21T02:53:18.730Z,16.60
2022-08-21T02:55:48.079Z,16.60
2022-08-21T02:58:17.363Z,16.60
2022-08-21T03:00:44.883Z,16.60
2022-08-21T03:03:12.008Z,16.60
2022-08-21T03:05:38.878Z,16.60
2022-08-21T03:08:12.252Z,16.50
2022-08-21T03:10:52.458Z,16.50
2022-08-21T03:13:21.475Z,16.50
2022-08-21T03:15:50.294Z,16.30
2022-08-21T03:18:17.958Z,16.30
2022-08-21T03:20:46.203Z,16.30
2022-08-21T03:23:16.796Z,16.30
2022-08-21T03:25:47.302Z,16.30
2022-08-21T03:28:17.888Z,16.30
2022-08-21T03:30:47.510Z,16.30
2022-08-21T03:33:15.214Z,16.30
2022-08-21T03:35:48.049Z,16.20
2022-08-21T03:38:15.004Z,16.20
2022-08-21T03:40:43.641Z,16.10
2022-08-21T03:43:10.681Z,16.00
2022-08-21T03:45:38.597Z,16.00
2022-08-21T03:48:06.764Z,15.90
2022-08-21T03:50:40.993Z,15.90
2022-08-21T03:53:17.217Z,15.90
2022-08-21T03:55:47.476Z,15.90
2022-08-21T03:58:17.687Z,15.90
2022-08-21T04:00:46.258Z,15.90
2022-08-21T04:03:13.110Z,15.80
2022-08-21T04:05:40.195Z,15.80
2022-08-21T04:08:07.847Z,15.80
2022-08-21T04:10:37.284Z,15.70
2022-08-21T04:13:05.229Z,15.70
2022-08-21T04:15:32.022Z,15.70
2022-08-21T04:17:59.463Z,15.70
2022-08-21T04:20:27.476Z,15.70
2022-08-21T04:22:54.573Z,15.60
2022-08-21T04:25:23.697Z,15.60
2022-08-21T04:27:50.463Z,15.60
2022-08-21T04:30:17.893Z,15.60
2022-08-21T04:32:47.772Z,15.60
2022-08-21T04:35:18.981Z,15.60
2022-08-21T04:37:46.302Z,15.60
2022-08-21T04:40:17.340Z,15.60
2022-08-21T04:42:57.454Z,15.70
2022-08-21T04:45:30.654Z,15.80
2022-08-21T04:48:00.181Z,15.80
2022-08-21T04:50:37.060Z,15.80
2022-08-21T04:53:09.599Z,15.80
2022-08-21T04:55:36.567Z,15.80
2022-08-21T04:58:03.376Z,15.80
2022-08-21T05:00:30.266Z,15.80
2022-08-21T05:03:00.065Z,15.80
2022-08-21T05:05:30.109Z,15.80
2022-08-21T05:08:00.075Z,15.80
2022-08-21T05:10:27.129Z,15.90
2022-08-21T05:12:54.231Z,16.00
2022-08-21T05:15:21.833Z,16.10
2022-08-21T05:17:53.631Z,16.10
2022-08-21T05:20:29.198Z,16.20
2022-08-21T05:22:56.333Z,16.30
2022-08-21T05:25:23.672Z,16.30
2022-08-21T05:27:52.252Z,16.40
2022-08-21T05:30:20.615Z,16.50
2022-08-21T05:32:48.699Z,16.60
2022-08-21T05:35:16.060Z,16.70
2022-08-21T05:37:43.053Z,16.70
2022-08-21T05:40:22.486Z,16.90
2022-08-21T05:42:53.940Z,16.90
2022-08-21T05:45:42.109Z,17.00
2022-08-21T05:48:16.632Z,17.10
2022-08-21T05:50:44.610Z,17.20
2022-08-21T05:53:12.102Z,17.30
2022-08-21T05:55:44.763Z,17.50
2022-08-21T05:58:12.655Z,17.60
2022-08-21T06:00:39.891Z,17.80
2022-08-21T06:03:13.256Z,17.90
2022-08-21T06:05:40.023Z,18.10
2022-08-21T06:08:06.823Z,18.40
2022-08-21T06:10:33.613Z,18.70
2022-08-21T06:13:00.585Z,19.00
2022-08-21T06:15:27.604Z,19.20
2022-08-21T06:17:55.218Z,19.50
2022-08-21T06:20:22.997Z,19.90
2022-08-21T06:22:49.872Z,20.20
2022-08-21T06:25:16.674Z,20.30
2022-08-21T06:27:43.542Z,20.60
2022-08-21T06:30:10.991Z,20.90
2022-08-21T06:32:38.311Z,21.10
2022-08-21T06:35:07.121Z,21.40
2022-08-21T06:37:34.211Z,21.70
2022-08-21T06:40:01.395Z,22.00
2022-08-21T06:42:29.115Z,22.30
2022-08-21T06:44:57.597Z,22.60
2022-08-21T06:47:24.365Z,22.80
2022-08-21T06:49:51.252Z,22.90
2022-08-21T06:52:18.150Z,23.00
2022-08-21T06:54:45.052Z,23.20
2022-08-21T06:57:11.827Z,23.30
2022-08-21T06:59:38.618Z,23.50
2022-08-21T07:02:05.425Z,23.60
2022-08-21T07:04:32.221Z,23.60
2022-08-21T07:06:59.394Z,23.70
2022-08-21T07:09:26.178Z,23.70
2022-08-21T07:11:55.939Z,24.00
2022-08-21T07:14:23.041Z,24.10
2022-08-21T07:16:50.501Z,24.00
2022-08-21T07:19:17.453Z,24.20
2022-08-21T07:21:44.322Z,24.20
2022-08-21T07:24:11.305Z,24.10
2022-08-21T07:26:38.257Z,24.30
2022-08-21T07:29:05.270Z,24.40
2022-08-21T07:31:32.893Z,24.60
2022-08-21T07:33:59.912Z,25.00
2022-08-21T07:36:26.923Z,25.20
2022-08-21T07:38:54.114Z,25.40
2022-08-21T07:41:26.987Z,25.50
2022-08-21T07:43:53.916Z,25.50
2022-08-21T07:46:20.865Z,25.60
2022-08-21T07:48:47.963Z,25.70
2022-08-21T07:51:17.715Z,25.80
2022-08-21T07:53:50.895Z,26.00
2022-08-21T07:56:18.129Z,26.10
2022-08-21T07:58:45.080Z,26.30
2022-08-21T08:01:12.540Z,26.50
2022-08-21T08:03:40.044Z,26.60
2022-08-21T08:06:09.613Z,26.60
2022-08-21T08:08:36.392Z,26.70
2022-08-21T08:11:03.305Z,26.70
2022-08-21T08:13:30.218Z,26.70
2022-08-21T08:15:57.408Z,26.60
2022-08-21T08:18:24.140Z,26.70
2022-08-21T08:20:50.899Z,26.70
2022-08-21T08:23:19.710Z,26.80
2022-08-21T08:25:46.505Z,27.00
2022-08-21T08:28:17.308Z,27.30
2022-08-21T08:30:46.726Z,27.30
2022-08-21T08:33:14.609Z,26.90
2022-08-21T08:35:43.331Z,27.00
2022-08-21T08:38:10.968Z,27.10
2022-08-21T08:40:43.024Z,27.50
2022-08-21T08:43:10.667Z,27.90
2022-08-21T08:45:45.164Z,28.00
2022-08-21T08:48:15.736Z,28.20
2022-08-21T08:50:57.455Z,28.10
2022-08-21T08:53:36.789Z,28.10
2022-08-21T08:56:05.605Z,28.20
2022-08-21T08:58:38.435Z,28.30
2022-08-21T09:01:12.078Z,28.30
2022-08-21T09:03:40.460Z,28.10
2022-08-21T09:06:31.291Z,28.20
2022-08-21T09:09:24.646Z,28.20
2022-08-21T09:12:03.450Z,28.20
2022-08-21T09:14:48.787Z,28.30
2022-08-21T09:17:55.753Z,28.60
2022-08-21T09:20:49.570Z,28.60
2022-08-21T09:23:31.355Z,28.10
2022-08-21T09:26:31.079Z,28.20
2022-08-21T09:29:01.611Z,27.70
2022-08-21T09:31:33.071Z,27.60
2022-08-21T09:34:06.337Z,27.90
2022-08-21T09:36:49.070Z,28.20
2022-08-21T09:39:26.644Z,28.60
2022-08-21T09:42:01.534Z,28.20
2022-08-21T09:44:31.052Z,28.20
2022-08-21T09:46:57.979Z,28.70
2022-08-21T09:49:33.316Z,28.80
2022-08-21T09:52:01.013Z,28.70
2022-08-21T09:54:32.472Z,28.80
2022-08-21T09:57:24.718Z,29.10
2022-08-21T09:59:52.222Z,29.10
2022-08-21T10:02:36.311Z,29.20
2022-08-21T10:05:26.388Z,29.00
2022-08-21T10:07:53.684Z,29.00
2022-08-21T10:10:24.880Z,29.00
2022-08-21T10:13:29.764Z,29.00
2022-08-21T10:16:18.902Z,29.00
2022-08-21T10:19:01.445Z,29.30
2022-08-21T10:21:43.249Z,29.30
2022-08-21T10:24:38.217Z,28.40
2022-08-21T10:27:37.345Z,27.80
2022-08-21T10:30:14.486Z,27.90
2022-08-21T10:33:06.099Z,28.10
2022-08-21T10:35:41.211Z,28.30
2022-08-21T10:38:46.386Z,28.60
2022-08-21T10:41:39.888Z,28.60
2022-08-21T10:44:36.202Z,28.80
2022-08-21T10:47:31.701Z,28.90
2022-08-21T10:50:18.066Z,28.90
2022-08-21T10:52:50.870Z,28.70
2022-08-21T10:55:35.760Z,28.60
2022-08-21T10:58:09.145Z,28.50
2022-08-21T11:00:49.450Z,28.50
2022-08-21T11:03:37.387Z,28.30
2022-08-21T11:06:14.056Z,28.10
2022-08-21T11:08:44.506Z,28.00
2022-08-21T11:11:23.670Z,27.70
2022-08-21T11:13:55.086Z,27.50
2022-08-21T11:17:04.611Z,27.50
2022-08-21T11:19:53.037Z,27.10
2022-08-21T11:22:37.216Z,26.20
2022-08-21T11:25:11.772Z,26.00
2022-08-21T11:27:55.903Z,25.70
2022-08-21T11:30:28.376Z,25.70
2022-08-21T11:33:32.655Z,25.90
2022-08-21T11:36:08.802Z,26.00
2022-08-21T11:38:44.153Z,26.10
2022-08-21T11:41:29.494Z,26.10
2022-08-21T11:44:05.175Z,26.10
2022-08-21T11:47:16.354Z,26.00
2022-08-21T11:50:20.583Z,25.90
2022-08-21T11:53:11.900Z,25.90
2022-08-21T11:55:56.218Z,25.80
2022-08-21T11:58:37.578Z,25.90
2022-08-21T12:01:17.744Z,25.90
2022-08-21T12:04:12.962Z,25.80
2022-08-21T12:06:42.584Z,25.70
2022-08-21T12:09:29.702Z,25.20
2022-08-21T12:12:30.383Z,24.90
2022-08-21T12:15:22.206Z,24.80
2022-08-21T12:17:59.023Z,24.70
2022-08-21T12:21:09.876Z,24.80
2022-08-21T12:24:02.346Z,25.00
2022-08-21T12:26:32.107Z,25.00
2022-08-21T12:29:14.961Z,25.00
2022-08-21T12:31:58.755Z,25.00
2022-08-21T12:34:38.140Z,24.80
2022-08-21T12:37:15.921Z,24.70
2022-08-21T12:39:47.531Z,24.80
2022-08-21T12:42:30.557Z,25.00
2022-08-21T12:45:03.427Z,25.20
2022-08-21T12:47:44.427Z,25.30
2022-08-21T12:50:17.776Z,25.40
2022-08-21T12:53:01.310Z,25.50
2022-08-21T12:55:32.046Z,25.50
2022-08-21T12:57:59.470Z,25.40
2022-08-21T13:00:29.279Z,25.40
2022-08-21T13:02:57.804Z,25.30
2022-08-21T13:05:38.169Z,25.30
2022-08-21T13:08:11.663Z,25.30
2022-08-21T13:10:41.339Z,25.30
2022-08-21T13:13:15.706Z,25.30
2022-08-21T13:16:02.825Z,25.40
2022-08-21T13:18:35.401Z,25.30
2022-08-21T13:21:14.841Z,25.40
2022-08-21T13:23:42.293Z,25.40
2022-08-21T13:26:21.948Z,25.50
2022-08-21T13:28:51.279Z,25.50
2022-08-21T13:31:23.010Z,25.40
2022-08-21T13:33:51.757Z,25.40
2022-08-21T13:36:42.186Z,25.50
2022-08-21T13:39:13.100Z,25.50
2022-08-21T13:41:44.583Z,25.50
2022-08-21T13:44:44.066Z,25.60
2022-08-21T13:47:14.512Z,25.70
2022-08-21T13:49:45.405Z,25.70
2022-08-21T13:52:25.502Z,25.80
2022-08-21T13:54:57.184Z,25.90
2022-08-21T13:57:30.165Z,26.00
2022-08-21T14:00:15.980Z,26.10
2022-08-21T14:02:45.830Z,26.20
2022-08-21T14:05:28.381Z,26.30
2022-08-21T14:08:15.513Z,26.10
2022-08-21T14:10:57.208Z,26.10
2022-08-21T14:13:44.114Z,25.90
2022-08-21T14:16:26.867Z,25.90
2022-08-21T14:19:04.020Z,25.90
2022-08-21T14:21:35.784Z,25.90
2022-08-21T14:24:22.863Z,25.90
2022-08-21T14:27:03.005Z,25.80
2022-08-21T14:29:36.089Z,25.60
2022-08-21T14:32:31.271Z,25.50
2022-08-21T14:34:59.606Z,25.60
2022-08-21T14:37:26.650Z,25.70
2022-08-21T14:39:53.552Z,25.80
2022-08-21T14:42:20.415Z,25.80
2022-08-21T14:44:47.424Z,25.90
2022-08-21T14:47:17.510Z,25.90
2022-08-21T14:49:44.410Z,25.80
2022-08-21T14:52:11.188Z,25.80
2022-08-21T14:54:38.101Z,25.90
2022-08-21T14:57:09.969Z,25.80
2022-08-21T14:59:38.314Z,25.80
2022-08-21T15:02:05.546Z,25.80
2022-08-21T15:04:33.327Z,25.80
2022-08-21T15:07:00.216Z,25.70
2022-08-21T15:09:27.371Z,25.70
2022-08-21T15:11:57.896Z,25.70
2022-08-21T15:14:29.644Z,25.60
2022-08-21T15:16:56.983Z,25.60
2022-08-21T15:19:24.184Z,25.60
2022-08-21T15:21:51.028Z,25.70
2022-08-21T15:24:17.944Z,25.60
2022-08-21T15:26:45.956Z,25.50
2022-08-21T15:29:12.912Z,25.50
2022-08-21T15:31:56.123Z,25.50
2022-08-21T15:34:27.205Z,25.40
2022-08-21T15:36:57.037Z,25.30
2022-08-21T15:39:25.361Z,25.20
2022-08-21T15:41:57.929Z,25.20
2022-08-21T15:44:29.175Z,25.20
2022-08-21T15:46:57.042Z,25.10
2022-08-21T15:49:24.347Z,25.10
2022-08-21T15:51:51.368Z,25.10
2022-08-21T15:54:18.453Z,25.10
2022-08-21T15:56:49.008Z,25.00
2022-08-21T15:59:22.850Z,25.00
2022-08-21T16:01:53.610Z,25.00
2022-08-21T16:04:26.895Z,25.00
2022-08-21T16:06:59.228Z,25.00
2022-08-21T16:09:30.804Z,24.80
2022-08-21T16:11:58.828Z,24.80
2022-08-21T16:14:25.588Z,24.80
2022-08-21T16:16:53.767Z,24.80
2022-08-21T16:19:21.844Z,24.70
2022-08-21T16:21:48.684Z,24.60
2022-08-21T16:24:15.404Z,24.60
2022-08-21T16:26:42.226Z,24.60
2022-08-21T16:29:10.456Z,24.50
2022-08-21T16:31:37.392Z,24.50
2022-08-21T16:34:04.540Z,24.50
2022-08-21T16:36:31.387Z,24.50
2022-08-21T16:38:59.373Z,24.60
2022-08-21T16:41:30.156Z,24.60
2022-08-21T16:43:57.220Z,24.60
2022-08-21T16:46:24.779Z,24.60
2022-08-21T16:48:51.498Z,24.60
2022-08-21T16:51:18.349Z,24.60
2022-08-21T16:53:45.603Z,24.50
2022-08-21T16:56:14.850Z,24.50
2022-08-21T16:58:44.171Z,24.50
2022-08-21T17:01:15.149Z,24.50
2022-08-21T17:03:45.756Z,24.40
2022-08-21T17:06:14.200Z,24.40
2022-08-21T17:08:42.311Z,24.30
2022-08-21T17:11:37.849Z,24.30
2022-08-21T17:14:13.448Z,24.30
2022-08-21T17:16:44.254Z,24.20
2022-08-21T17:19:13.067Z,24.10
2022-08-21T17:21:39.888Z,24.10
2022-08-21T17:24:06.829Z,24.00
2022-08-21T17:26:33.895Z,24.10
2022-08-21T17:29:01.124Z,24.00
2022-08-21T17:31:29.559Z,24.00
2022-08-21T17:33:56.623Z,23.90
2022-08-21T17:36:26.983Z,23.90
2022-08-21T17:38:54.308Z,23.90
2022-08-21T17:41:22.372Z,23.90
2022-08-21T17:43:51.472Z,23.90
2022-08-21T17:46:21.910Z,23.90
2022-08-21T17:48:48.753Z,23.80
2022-08-21T17:51:16.977Z,23.80
2022-08-21T17:53:44.971Z,23.70
2022-08-21T17:56:14.962Z,23.70
2022-08-21T17:58:47.418Z,23.60
2022-08-21T18:01:14.431Z,23.60
2022-08-21T18:03:41.381Z,23.60
2022-08-21T18:06:08.355Z,23.60
2022-08-21T18:08:35.264Z,23.60
2022-08-21T18:11:02.229Z,23.50
2022-08-21T18:13:33.054Z,23.50
2022-08-21T18:16:01.234Z,23.50
2022-08-21T18:18:32.865Z,23.50
2022-08-21T18:20:59.689Z,23.50
2022-08-21T18:23:44.038Z,23.40
2022-08-21T18:26:14.439Z,23.40
2022-08-21T18:28:41.916Z,23.30
2022-08-21T18:31:11.038Z,23.30
2022-08-21T18:33:39.327Z,23.20
2022-08-21T18:36:11.178Z,23.10
2022-08-21T18:38:38.151Z,22.90
2022-08-21T18:41:10.477Z,22.70
2022-08-21T18:43:37.939Z,22.50
2022-08-21T18:46:05.192Z,22.50
2022-08-21T18:48:32.289Z,22.40
2022-08-21T18:50:59.723Z,22.30
2022-08-21T18:56:15.983Z,22.20
2022-08-21T18:58:44.377Z,22.20
2022-08-21T19:01:11.980Z,22.20
2022-08-21T19:03:39.604Z,22.10
2022-08-21T19:06:09.794Z,22.00
2022-08-21T19:08:38.898Z,21.90
2022-08-21T19:11:06.647Z,21.80
2022-08-21T19:13:34.509Z,21.70
2022-08-21T19:16:05.193Z,21.70
2022-08-21T19:18:37.300Z,21.70
2022-08-21T19:21:04.594Z,21.60
2022-08-21T19:23:31.825Z,21.60
2022-08-21T19:26:03.782Z,21.50
2022-08-21T19:28:52.685Z,21.40
2022-08-21T19:31:24.867Z,21.50
2022-08-21T19:34:26.309Z,21.50
2022-08-21T19:36:56.127Z,21.30
2022-08-21T19:39:23.845Z,21.20
2022-08-21T19:41:58.090Z,21.10
2022-08-21T19:44:30.971Z,21.00
2022-08-21T19:46:59.536Z,20.90
2022-08-21T19:49:33.232Z,20.90
2022-08-21T19:52:00.592Z,20.90
2022-08-21T19:54:30.154Z,20.80
2022-08-21T19:56:58.836Z,20.70
2022-08-21T19:59:31.223Z,20.70
2022-08-21T20:01:57.944Z,20.70
2022-08-21T20:04:24.668Z,20.60
2022-08-21T20:06:54.476Z,20.60
2022-08-21T20:09:22.009Z,20.50
2022-08-21T20:11:52.612Z,20.40
2022-08-21T20:14:23.642Z,20.20
2022-08-21T20:19:39.421Z,20.10
2022-08-21T20:22:06.967Z,20.10
2022-08-21T20:24:34.168Z,20.10
2022-08-21T20:27:02.987Z,20.10
2022-08-21T20:35:13.622Z,19.80
2022-08-21T20:37:40.834Z,19.70
2022-08-21T20:40:11.469Z,19.70
2022-08-21T20:42:47.230Z,19.60
2022-08-21T20:45:21.636Z,19.60
2022-08-21T20:50:40.293Z,19.60
2022-08-21T20:53:18.825Z,19.60
2022-08-21T20:55:50.910Z,19.50
2022-08-21T20:58:33.368Z,19.40
2022-08-21T21:01:06.183Z,19.30
2022-08-21T21:03:46.802Z,19.30
2022-08-21T21:06:19.697Z,19.20
2022-08-21T21:08:52.582Z,19.20
2022-08-21T21:11:24.260Z,19.20
2022-08-21T21:13:53.002Z,19.20
2022-08-21T21:16:30.526Z,19.20
2022-08-21T21:19:20.931Z,19.30
2022-08-21T21:21:55.016Z,19.20
2022-08-21T21:24:35.393Z,19.10
2022-08-21T21:27:40.387Z,19.10
2022-08-21T21:30:23.191Z,19.00
2022-08-21T21:32:50.825Z,18.90
2022-08-21T21:35:32.316Z,18.90
2022-08-21T21:38:23.082Z,18.90
2022-08-21T21:41:13.274Z,18.90
2022-08-21T21:44:07.251Z,18.90
2022-08-21T21:46:59.796Z,18.80
2022-08-21T21:49:33.397Z,18.70
2022-08-21T21:52:24.818Z,18.60
2022-08-21T21:55:08.902Z,18.60
2022-08-21T21:58:01.425Z,18.60
2022-08-21T22:00:34.239Z,18.60
2022-08-21T22:03:25.248Z,18.60
2022-08-21T22:05:51.973Z,18.50
2022-08-21T22:11:49.297Z,18.40
2022-08-21T22:14:28.636Z,18.30
2022-08-21T22:16:55.633Z,18.30
2022-08-21T22:19:29.288Z,18.30
2022-08-21T22:22:00.969Z,18.30
2022-08-21T22:24:36.273Z,18.20
2022-08-21T22:27:20.459Z,18.30
2022-08-21T22:29:53.675Z,18.30
2022-08-21T22:32:38.152Z,18.20
2022-08-21T22:35:15.532Z,18.10
2022-08-21T22:37:49.720Z,18.00
2022-08-21T22:40:26.401Z,17.80
2022-08-21T22:43:09.383Z,17.80
2022-08-21T22:45:58.881Z,17.70
2022-08-21T22:48:29.336Z,17.60
2022-08-21T22:51:00.414Z,17.60
2022-08-21T22:53:30.396Z,17.60
2022-08-21T22:56:00.455Z,17.60
2022-08-21T22:58:40.959Z,17.60
2022-08-21T23:01:43.409Z,17.60
2022-08-21T23:04:21.678Z,17.70
2022-08-21T23:06:58.201Z,17.70
2022-08-21T23:09:37.948Z,17.60
2022-08-21T23:12:21.148Z,17.60
2022-08-21T23:14:54.878Z,17.60
2022-08-21T23:17:50.099Z,17.70
2022-08-21T23:20:39.611Z,17.60
2022-08-21T23:23:25.132Z,17.60
2022-08-21T23:26:12.318Z,17.60
2022-08-21T23:28:56.658Z,17.60
2022-08-21T23:31:54.864Z,17.60
2022-08-21T23:34:47.879Z,17.60
2022-08-21T23:37:43.977Z,17.60
2022-08-21T23:40:35.239Z,17.60
2022-08-21T23:43:20.793Z,17.50
2022-08-21T23:46:12.072Z,17.50
2022-08-21T23:48:57.929Z,17.50
2022-08-21T23:51:45.076Z,17.40
2022-08-21T23:54:25.423Z,17.40
2022-08-21T23:57:31.429Z,17.40
